createdAt,value
2019-06-27T00:00:49.766Z,987.931
2019-06-27T00:02:49.736Z,987.930
2019-06-27T00:04:50.155Z,987.912
2019-06-27T00:06:50.264Z,987.892
2019-06-27T00:08:50.268Z,987.878
2019-06-27T00:10:50.247Z,987.890
2019-06-27T00:12:50.248Z,987.921
2019-06-27T00:14:50.267Z,987.929
2019-06-27T00:16:50.365Z,987.935
2019-06-27T00:18:50.407Z,987.944
2019-06-27T00:20:50.420Z,987.966
2019-06-27T00:22:50.506Z,987.976
2019-06-27T00:24:50.546Z,987.993
2019-06-27T00:26:57.906Z,988.011
2019-06-27T00:28:49.907Z,988.035
2019-06-27T00:30:49.920Z,988.047
2019-06-27T00:32:49.899Z,988.079
2019-06-27T00:34:50.257Z,988.105
2019-06-27T00:36:50.280Z,988.125
2019-06-27T00:38:50.331Z,988.125
2019-06-27T00:40:50.314Z,988.121
2019-06-27T00:42:50.431Z,988.124
2019-06-27T00:44:50.427Z,988.134
2019-06-27T00:46:50.537Z,988.159
2019-06-27T00:48:50.555Z,988.173
2019-06-27T00:50:49.686Z,988.186
2019-06-27T00:52:49.626Z,988.194
2019-06-27T00:54:50.606Z,988.207
2019-06-27T00:56:49.835Z,988.213
2019-06-27T00:58:49.833Z,988.205
2019-06-27T01:00:49.912Z,988.193
2019-06-27T01:02:49.839Z,988.174
2019-06-27T01:04:50.201Z,988.185
2019-06-27T01:06:50.474Z,988.202
2019-06-27T01:08:50.595Z,988.224
2019-06-27T01:10:50.572Z,988.250
2019-06-27T01:12:50.568Z,988.258
2019-06-27T01:14:49.653Z,988.252
2019-06-27T01:16:49.912Z,988.258
2019-06-27T01:18:49.948Z,988.275
2019-06-27T01:20:50.267Z,988.278
2019-06-27T01:22:50.416Z,988.269
2019-06-27T01:24:50.481Z,988.276
2019-06-27T01:26:49.833Z,988.302
2019-06-27T01:28:49.941Z,988.313
2019-06-27T01:30:49.936Z,988.298
2019-06-27T01:32:49.917Z,988.303
2019-06-27T01:34:50.201Z,988.304
2019-06-27T01:36:50.328Z,988.305
2019-06-27T01:38:50.386Z,988.283
2019-06-27T01:40:50.392Z,988.309
2019-06-27T01:42:50.330Z,988.317
2019-06-27T01:44:50.313Z,988.336
2019-06-27T01:46:50.384Z,988.356
2019-06-27T01:48:50.397Z,988.369
2019-06-27T01:50:50.460Z,988.367
2019-06-27T01:52:50.431Z,988.373
2019-06-27T01:54:50.524Z,988.376
2019-06-27T01:56:49.666Z,988.370
2019-06-27T01:58:49.728Z,988.369
2019-06-27T02:00:49.748Z,988.365
2019-06-27T02:02:49.926Z,988.370
2019-06-27T02:04:50.195Z,988.362
2019-06-27T02:06:50.446Z,988.364
2019-06-27T02:08:49.990Z,988.386
2019-06-27T02:10:50.004Z,988.402
2019-06-27T02:12:50.242Z,988.395
2019-06-27T02:14:50.255Z,988.394
2019-06-27T02:16:50.314Z,988.418
2019-06-27T02:18:50.317Z,988.439
2019-06-27T02:20:50.339Z,988.431
2019-06-27T02:22:50.323Z,988.424
2019-06-27T02:24:50.361Z,988.407
2019-06-27T02:26:50.450Z,988.406
2019-06-27T02:28:50.454Z,988.412
2019-06-27T02:30:50.380Z,988.394
2019-06-27T02:32:50.391Z,988.396
2019-06-27T02:34:49.808Z,988.414
2019-06-27T02:36:49.925Z,988.426
2019-06-27T02:38:49.935Z,988.456
2019-06-27T02:40:49.961Z,988.428
2019-06-27T02:42:50.024Z,988.403
2019-06-27T02:44:50.089Z,988.396
2019-06-27T02:46:50.249Z,988.389
2019-06-27T02:48:50.262Z,988.376
2019-06-27T02:50:50.296Z,988.365
2019-06-27T02:52:50.354Z,988.368
2019-06-27T02:54:50.442Z,988.371
2019-06-27T02:56:50.569Z,988.360
2019-06-27T02:58:50.579Z,988.389
2019-06-27T03:00:49.662Z,988.404
2019-06-27T03:02:50.598Z,988.411
2019-06-27T03:04:49.911Z,988.398
2019-06-27T03:06:50.227Z,988.359
2019-06-27T03:08:50.372Z,988.347
2019-06-27T03:10:50.428Z,988.349
2019-06-27T03:12:50.514Z,988.342
2019-06-27T03:14:50.531Z,988.326
2019-06-27T03:16:50.584Z,988.327
2019-06-27T03:18:50.639Z,988.344
2019-06-27T03:20:49.730Z,988.351
2019-06-27T03:22:49.907Z,988.357
2019-06-27T03:24:49.919Z,988.377
2019-06-27T03:26:50.047Z,988.380
2019-06-27T03:28:54.411Z,988.359
2019-06-27T03:30:50.535Z,988.360
2019-06-27T03:32:50.579Z,988.372
2019-06-27T03:34:50.164Z,988.397
2019-06-27T03:36:50.425Z,988.415
2019-06-27T03:38:50.528Z,988.417
2019-06-27T03:40:50.549Z,988.419
2019-06-27T03:42:50.523Z,988.441
2019-06-27T03:44:50.591Z,988.458
2019-06-27T03:46:49.787Z,988.482
2019-06-27T03:48:49.805Z,988.523
2019-06-27T03:50:49.775Z,988.551
2019-06-27T03:52:49.951Z,988.558
2019-06-27T03:54:49.941Z,988.566
2019-06-27T03:56:50.101Z,988.575
2019-06-27T03:59:12.602Z,988.568
2019-06-27T04:00:49.955Z,988.578
2019-06-27T04:02:50.049Z,988.596
2019-06-27T04:04:50.263Z,988.618
2019-06-27T04:06:50.464Z,988.619
2019-06-27T04:08:50.516Z,988.617
2019-06-27T04:10:49.717Z,988.577
2019-06-27T04:12:49.724Z,988.546
2019-06-27T04:14:49.907Z,988.560
2019-06-27T04:16:50.115Z,988.557
2019-06-27T04:18:50.202Z,988.565
2019-06-27T04:20:50.184Z,988.578
2019-06-27T04:22:50.266Z,988.587
2019-06-27T04:24:50.222Z,988.617
2019-06-27T04:26:50.426Z,988.635
2019-06-27T04:28:50.413Z,988.673
2019-06-27T04:30:50.562Z,988.670
2019-06-27T04:32:50.631Z,988.686
2019-06-27T04:34:49.782Z,988.690
2019-06-27T04:36:49.912Z,988.702
2019-06-27T04:38:49.947Z,988.695
2019-06-27T04:40:49.971Z,988.705
2019-06-27T04:42:49.998Z,988.710
2019-06-27T04:44:49.984Z,988.726
2019-06-27T04:46:50.136Z,988.758
2019-06-27T04:48:50.274Z,988.750
2019-06-27T04:50:50.318Z,988.775
2019-06-27T04:52:50.573Z,988.810
2019-06-27T04:54:50.607Z,988.818
2019-06-27T04:56:49.862Z,988.825
2019-06-27T04:58:49.901Z,988.834
2019-06-27T05:00:49.914Z,988.848
2019-06-27T05:02:49.957Z,988.839
2019-06-27T05:04:50.367Z,988.825
2019-06-27T05:06:49.704Z,988.823
2019-06-27T05:08:49.716Z,988.825
2019-06-27T05:10:49.798Z,988.831
2019-06-27T05:12:49.796Z,988.847
2019-06-27T05:14:49.880Z,988.887
2019-06-27T05:16:50.174Z,988.884
2019-06-27T05:18:50.270Z,988.886
2019-06-27T05:20:50.281Z,988.897
2019-06-27T05:22:50.207Z,988.870
2019-06-27T05:24:50.222Z,988.880
2019-06-27T05:26:50.325Z,988.900
2019-06-27T05:28:50.397Z,988.919
2019-06-27T05:30:51.985Z,988.940
2019-06-27T05:32:50.007Z,988.957
2019-06-27T05:34:50.299Z,988.991
2019-06-27T05:36:49.885Z,989.026
2019-06-27T05:38:49.928Z,989.050
2019-06-27T05:40:49.919Z,989.090
2019-06-27T05:42:49.946Z,989.090
2019-06-27T05:44:49.877Z,989.124
2019-06-27T05:46:50.112Z,989.143
2019-06-27T05:48:50.145Z,989.151
2019-06-27T05:50:50.126Z,989.177
2019-06-27T05:52:50.201Z,989.187
2019-06-27T05:54:50.257Z,989.194
2019-06-27T05:56:50.350Z,989.196
2019-06-27T05:58:52.522Z,989.195
2019-06-27T06:00:50.547Z,989.193
2019-06-27T06:02:50.542Z,989.216
2019-06-27T06:04:49.978Z,989.219
2019-06-27T06:06:50.189Z,989.254
2019-06-27T06:08:50.211Z,989.274
2019-06-27T06:10:50.204Z,989.290
2019-06-27T06:12:50.196Z,989.293
2019-06-27T06:14:50.232Z,989.286
2019-06-27T06:16:50.434Z,989.300
2019-06-27T06:18:50.393Z,989.312
2019-06-27T06:20:50.324Z,989.325
2019-06-27T06:22:50.347Z,989.362
2019-06-27T06:24:50.354Z,989.368
2019-06-27T06:26:50.593Z,989.378
2019-06-27T06:28:50.549Z,989.377
2019-06-27T06:30:50.613Z,989.383
2019-06-27T06:32:49.807Z,989.371
2019-06-27T06:34:50.121Z,989.367
2019-06-27T06:36:50.255Z,989.379
2019-06-27T06:38:50.314Z,989.386
2019-06-27T06:40:50.399Z,989.343
2019-06-27T06:42:50.763Z,989.318
2019-06-27T06:44:49.735Z,989.317
2019-06-27T06:46:49.895Z,989.323
2019-06-27T06:48:49.924Z,989.324
2019-06-27T06:50:49.933Z,989.296
2019-06-27T06:52:49.930Z,989.286
2019-06-27T06:54:49.957Z,989.273
2019-06-27T06:56:50.174Z,989.270
2019-06-27T06:58:50.331Z,989.268
2019-06-27T07:01:02.792Z,989.281
2019-06-27T07:02:50.644Z,989.275
2019-06-27T07:04:50.226Z,989.275
2019-06-27T07:06:50.284Z,989.286
2019-06-27T07:08:50.358Z,989.294
2019-06-27T07:10:50.335Z,989.277
2019-06-27T07:12:50.298Z,989.276
2019-06-27T07:14:50.599Z,989.284
2019-06-27T07:16:49.716Z,989.290
2019-06-27T07:18:49.786Z,989.282
2019-06-27T07:20:49.802Z,989.282
2019-06-27T07:22:49.726Z,989.308
2019-06-27T07:24:49.726Z,989.319
2019-06-27T07:26:50.029Z,989.328
2019-06-27T07:28:50.147Z,989.348
2019-06-27T07:30:50.102Z,989.374
2019-06-27T07:32:50.068Z,989.371
2019-06-27T07:34:50.396Z,989.374
2019-06-27T07:36:50.420Z,989.376
2019-06-27T07:38:50.395Z,989.419
2019-06-27T07:40:50.459Z,989.435
2019-06-27T07:42:50.391Z,989.430
2019-06-27T07:44:50.440Z,989.406
2019-06-27T07:46:50.558Z,989.419
2019-06-27T07:48:49.657Z,989.392
2019-06-27T07:50:50.559Z,989.345
2019-06-27T07:52:50.506Z,989.316
2019-06-27T07:54:50.485Z,989.317
2019-06-27T07:56:50.714Z,989.322
2019-06-27T07:58:49.728Z,989.352
2019-06-27T08:00:49.672Z,989.373
2019-06-27T08:02:50.579Z,989.368
2019-06-27T08:04:49.960Z,989.321
2019-06-27T08:06:50.177Z,989.298
2019-06-27T08:08:50.236Z,989.284
2019-06-27T08:10:50.338Z,989.276
2019-06-27T08:12:50.263Z,989.258
2019-06-27T08:14:50.252Z,989.222
2019-06-27T08:16:50.443Z,989.203
2019-06-27T08:18:50.434Z,989.193
2019-06-27T08:20:50.396Z,989.183
2019-06-27T08:22:50.386Z,989.181
2019-06-27T08:24:50.333Z,989.196
2019-06-27T08:26:50.541Z,989.220
2019-06-27T08:28:50.462Z,989.207
2019-06-27T08:30:49.655Z,989.183
2019-06-27T08:32:49.683Z,989.190
2019-06-27T08:34:49.856Z,989.200
2019-06-27T08:36:50.129Z,989.189
2019-06-27T08:38:50.176Z,989.183
2019-06-27T08:40:50.168Z,989.209
2019-06-27T08:42:50.164Z,989.199
2019-06-27T08:44:50.161Z,989.210
2019-06-27T08:46:50.276Z,989.188
2019-06-27T08:48:50.227Z,989.185
2019-06-27T08:50:50.203Z,989.194
2019-06-27T08:52:50.193Z,989.193
2019-06-27T08:54:50.168Z,989.181
2019-06-27T08:56:50.261Z,989.156
2019-06-27T08:58:50.255Z,989.145
2019-06-27T09:00:50.273Z,989.145
2019-06-27T09:02:50.267Z,989.143
2019-06-27T09:04:50.468Z,989.131
2019-06-27T09:06:50.485Z,989.120
2019-06-27T09:08:50.503Z,989.117
2019-06-27T09:10:50.648Z,989.104
2019-06-27T09:12:49.680Z,989.074
2019-06-27T09:14:50.613Z,989.082
2019-06-27T09:16:49.706Z,989.112
2019-06-27T09:18:49.786Z,989.127
2019-06-27T09:20:49.702Z,989.112
2019-06-27T09:22:49.722Z,989.131
2019-06-27T09:24:49.694Z,989.130
2019-06-27T09:26:49.888Z,989.112
2019-06-27T09:28:49.859Z,989.107
2019-06-27T09:30:50.057Z,989.117
2019-06-27T09:32:50.083Z,989.167
2019-06-27T09:34:50.378Z,989.164
2019-06-27T09:36:50.504Z,989.148
2019-06-27T09:38:50.496Z,989.144
2019-06-27T09:40:50.464Z,989.132
2019-06-27T09:42:50.487Z,989.133
2019-06-27T09:44:50.518Z,989.181
2019-06-27T09:46:49.742Z,989.158
2019-06-27T09:48:49.716Z,989.148
2019-06-27T09:50:49.671Z,989.166
2019-06-27T09:52:49.653Z,989.186
2019-06-27T09:54:49.613Z,989.189
2019-06-27T09:56:49.691Z,989.186
2019-06-27T09:58:49.631Z,989.198
2019-06-27T10:00:49.896Z,989.213
2019-06-27T10:02:49.897Z,989.211
2019-06-27T10:04:50.205Z,989.206
2019-06-27T10:06:50.314Z,989.213
2019-06-27T10:08:50.252Z,989.213
2019-06-27T10:10:50.359Z,989.212
2019-06-27T10:12:50.268Z,989.188
2019-06-27T10:14:50.285Z,989.186
2019-06-27T10:16:50.289Z,989.180
2019-06-27T10:18:50.467Z,989.146
2019-06-27T10:20:50.511Z,989.192
2019-06-27T10:22:50.467Z,989.197
2019-06-27T10:24:50.474Z,989.171
2019-06-27T10:26:50.580Z,989.146
2019-06-27T10:28:50.561Z,989.169
2019-06-27T10:30:50.577Z,989.191
2019-06-27T10:33:00.667Z,989.210
2019-06-27T10:34:49.878Z,989.214
2019-06-27T10:36:50.086Z,989.209
2019-06-27T10:38:50.048Z,989.209
2019-06-27T10:40:50.089Z,989.214
2019-06-27T10:42:50.036Z,989.194
2019-06-27T10:44:50.064Z,989.143
2019-06-27T10:46:50.211Z,989.097
2019-06-27T10:48:50.159Z,989.096
2019-06-27T10:50:50.151Z,989.109
2019-06-27T10:52:50.135Z,989.106
2019-06-27T10:54:50.173Z,989.091
2019-06-27T10:56:50.211Z,989.079
2019-06-27T10:58:50.234Z,989.023
2019-06-27T11:00:50.209Z,989.047
2019-06-27T11:02:50.167Z,989.046
2019-06-27T11:04:50.595Z,989.032
2019-06-27T11:06:50.585Z,989.021
2019-06-27T11:08:50.581Z,988.988
2019-06-27T11:10:50.569Z,988.968
2019-06-27T11:12:50.524Z,988.907
2019-06-27T11:15:00.039Z,988.939
2019-06-27T11:16:50.218Z,988.934
2019-06-27T11:18:50.186Z,988.937
2019-06-27T11:20:50.245Z,988.894
2019-06-27T11:22:50.251Z,988.863
2019-06-27T11:24:50.240Z,988.839
2019-06-27T11:26:50.439Z,988.839
2019-06-27T11:28:50.611Z,988.835
2019-06-27T11:30:49.703Z,988.820
2019-06-27T11:32:49.646Z,988.798
2019-06-27T11:34:49.923Z,988.784
2019-06-27T11:36:50.020Z,988.770
2019-06-27T11:38:49.973Z,988.744
2019-06-27T11:40:49.973Z,988.751
2019-06-27T11:42:49.933Z,988.725
2019-06-27T11:44:49.876Z,988.688
2019-06-27T11:46:50.034Z,988.647
2019-06-27T11:48:50.052Z,988.665
2019-06-27T11:50:50.220Z,988.612
2019-06-27T11:52:50.381Z,988.599
2019-06-27T11:54:50.307Z,988.577
2019-06-27T11:56:50.349Z,988.604
2019-06-27T11:58:50.331Z,988.625
2019-06-27T12:00:50.286Z,988.623
2019-06-27T12:02:50.299Z,988.582
2019-06-27T12:04:49.660Z,988.593
2019-06-27T12:06:49.763Z,988.573
2019-06-27T12:08:49.752Z,988.542
2019-06-27T12:10:49.806Z,988.523
2019-06-27T12:12:49.812Z,988.477
2019-06-27T12:14:49.851Z,988.463
2019-06-27T12:16:49.881Z,988.449
2019-06-27T12:18:49.917Z,988.457
2019-06-27T12:20:49.853Z,988.449
2019-06-27T12:22:50.042Z,988.432
2019-06-27T12:24:50.042Z,988.435
2019-06-27T12:26:50.102Z,988.422
2019-06-27T12:28:50.034Z,988.432
2019-06-27T12:30:50.213Z,988.375
2019-06-27T12:32:53.204Z,988.360
2019-06-27T12:34:50.492Z,988.328
2019-06-27T12:36:50.453Z,988.313
2019-06-27T12:38:50.404Z,988.298
2019-06-27T12:40:50.481Z,988.298
2019-06-27T12:42:50.430Z,988.285
2019-06-27T12:44:50.480Z,988.248
2019-06-27T12:46:49.619Z,988.214
2019-06-27T12:48:50.555Z,988.199
2019-06-27T12:50:50.589Z,988.176
2019-06-27T12:52:50.569Z,988.189
2019-06-27T12:54:50.516Z,988.220
2019-06-27T12:56:50.583Z,988.237
2019-06-27T12:58:50.515Z,988.209
2019-06-27T13:00:50.454Z,988.191
2019-06-27T13:02:50.504Z,988.174
2019-06-27T13:04:49.942Z,988.136
2019-06-27T13:06:50.066Z,988.131
2019-06-27T13:08:50.123Z,988.177
2019-06-27T13:10:50.212Z,988.173
2019-06-27T13:12:50.360Z,988.161
2019-06-27T13:14:50.349Z,988.156
2019-06-27T13:16:50.500Z,988.142
2019-06-27T13:18:50.375Z,988.095
2019-06-27T13:20:58.992Z,988.093
2019-06-27T13:22:49.978Z,988.064
2019-06-27T13:24:50.049Z,988.083
2019-06-27T13:26:50.172Z,988.071
2019-06-27T13:28:50.271Z,988.094
2019-06-27T13:30:50.195Z,988.068
2019-06-27T13:32:50.206Z,988.039
2019-06-27T13:34:50.473Z,988.044
2019-06-27T13:36:50.526Z,988.067
2019-06-27T13:38:50.572Z,988.004
2019-06-27T13:40:50.558Z,987.990
2019-06-27T13:42:50.626Z,988.019
2019-06-27T13:44:49.740Z,988.027
2019-06-27T13:46:49.765Z,988.020
2019-06-27T13:48:49.765Z,988.000
2019-06-27T13:50:49.723Z,988.001
2019-06-27T13:52:49.786Z,987.962
2019-06-27T13:54:49.764Z,987.958
2019-06-27T13:56:49.804Z,987.906
2019-06-27T13:58:49.779Z,987.922
2019-06-27T14:00:49.830Z,987.904
2019-06-27T14:02:50.028Z,987.884
2019-06-27T14:04:58.111Z,987.847
2019-06-27T14:06:50.312Z,987.864
2019-06-27T14:08:50.310Z,987.898
2019-06-27T14:10:51.471Z,987.861
2019-06-27T14:12:50.444Z,987.834
2019-06-27T14:15:00.544Z,987.804
2019-06-27T14:16:49.717Z,987.810
2019-06-27T14:18:49.647Z,987.827
2019-06-27T14:20:49.699Z,987.836
2019-06-27T14:22:49.697Z,987.795
2019-06-27T14:24:49.738Z,987.789
2019-06-27T14:26:49.820Z,987.823
2019-06-27T14:28:49.796Z,987.799
2019-06-27T14:30:49.797Z,987.764
2019-06-27T14:32:53.795Z,987.760
2019-06-27T14:34:50.250Z,987.759
2019-06-27T14:36:54.718Z,987.730
2019-06-27T14:38:49.668Z,987.716
2019-06-27T14:40:49.709Z,987.698
2019-06-27T14:42:49.705Z,987.696
2019-06-27T14:44:49.808Z,987.684
2019-06-27T14:46:49.845Z,987.663
2019-06-27T14:48:49.806Z,987.716
2019-06-27T14:50:49.815Z,987.725
2019-06-27T14:52:49.775Z,987.701
2019-06-27T14:54:49.747Z,987.692
2019-06-27T14:56:49.971Z,987.637
2019-06-27T14:58:49.939Z,987.580
2019-06-27T15:00:49.942Z,987.571
2019-06-27T15:02:49.914Z,987.567
2019-06-27T15:04:50.314Z,987.556
2019-06-27T15:06:50.845Z,987.575
2019-06-27T15:08:49.927Z,987.577
2019-06-27T15:10:49.881Z,987.565
2019-06-27T15:12:57.928Z,987.563
2019-06-27T15:14:51.003Z,987.528
2019-06-27T15:16:50.181Z,987.512
2019-06-27T15:18:50.260Z,987.526
2019-06-27T15:20:50.232Z,987.535
2019-06-27T15:22:50.248Z,987.539
2019-06-27T15:24:50.370Z,987.557
2019-06-27T15:26:50.554Z,987.568
2019-06-27T15:28:50.524Z,987.564
2019-06-27T15:30:50.573Z,987.526
2019-06-27T15:32:50.545Z,987.512
2019-06-27T15:34:49.882Z,987.491
2019-06-27T15:36:49.943Z,987.470
2019-06-27T15:38:50.013Z,987.488
2019-06-27T15:40:50.044Z,987.486
2019-06-27T15:42:50.082Z,987.476
2019-06-27T15:44:50.010Z,987.479
2019-06-27T15:46:54.654Z,987.490
2019-06-27T15:48:50.554Z,987.486
2019-06-27T15:50:50.782Z,987.495
2019-06-27T15:52:49.773Z,987.503
2019-06-27T15:54:49.778Z,987.481
2019-06-27T15:56:49.814Z,987.468
2019-06-27T15:58:49.777Z,987.483
2019-06-27T16:00:49.801Z,987.473
2019-06-27T16:02:49.909Z,987.453
2019-06-27T16:04:50.174Z,987.448
2019-06-27T16:06:50.205Z,987.459
2019-06-27T16:08:50.374Z,987.460
2019-06-27T16:10:50.468Z,987.412
2019-06-27T16:12:50.511Z,987.403
2019-06-27T16:14:50.531Z,987.404
2019-06-27T16:16:49.649Z,987.412
2019-06-27T16:18:50.693Z,987.407
2019-06-27T16:20:49.647Z,987.409
2019-06-27T16:22:49.674Z,987.424
2019-06-27T16:24:49.690Z,987.420
2019-06-27T16:26:49.901Z,987.419
2019-06-27T16:28:49.872Z,987.407
2019-06-27T16:30:49.824Z,987.418
2019-06-27T16:32:49.924Z,987.420
2019-06-27T16:34:50.190Z,987.457
2019-06-27T16:36:50.315Z,987.460
2019-06-27T16:38:50.289Z,987.437
2019-06-27T16:40:50.333Z,987.414
2019-06-27T16:42:50.394Z,987.406
2019-06-27T16:44:50.345Z,987.463
2019-06-27T16:46:50.584Z,987.466
2019-06-27T16:48:50.586Z,987.477
2019-06-27T16:50:49.626Z,987.480
2019-06-27T16:52:50.593Z,987.492
2019-06-27T16:54:49.620Z,987.485
2019-06-27T16:56:49.677Z,987.495
2019-06-27T16:58:49.819Z,987.501
2019-06-27T17:00:49.848Z,987.483
2019-06-27T17:02:49.873Z,987.475
2019-06-27T17:04:50.165Z,987.481
2019-06-27T17:06:50.369Z,987.457
2019-06-27T17:08:50.469Z,987.448
2019-06-27T17:10:50.414Z,987.437
2019-06-27T17:12:50.394Z,987.437
2019-06-27T17:14:50.485Z,987.468
2019-06-27T17:16:50.565Z,987.489
2019-06-27T17:18:50.600Z,987.501
2019-06-27T17:20:49.608Z,987.501
2019-06-27T17:22:50.599Z,987.510
2019-06-27T17:24:50.533Z,987.503
2019-06-27T17:26:49.641Z,987.494
2019-06-27T17:28:49.635Z,987.498
2019-06-27T17:30:49.597Z,987.508
2019-06-27T17:32:50.591Z,987.514
2019-06-27T17:34:50.002Z,987.511
2019-06-27T17:36:58.475Z,987.531
2019-06-27T17:38:50.518Z,987.545
2019-06-27T17:40:50.490Z,987.565
2019-06-27T17:42:50.434Z,987.567
2019-06-27T17:44:50.493Z,987.589
2019-06-27T17:46:49.613Z,987.588
2019-06-27T17:48:50.576Z,987.576
2019-06-27T17:50:50.597Z,987.583
2019-06-27T17:52:50.544Z,987.602
2019-06-27T17:54:50.499Z,987.588
2019-06-27T17:56:49.641Z,987.581
2019-06-27T17:58:49.646Z,987.575
2019-06-27T18:00:50.625Z,987.563
2019-06-27T18:02:49.759Z,987.557
2019-06-27T18:04:50.145Z,987.541
2019-06-27T18:06:50.294Z,987.560
2019-06-27T18:08:50.338Z,987.575
2019-06-27T18:10:50.359Z,987.588
2019-06-27T18:12:50.348Z,987.608
2019-06-27T18:14:50.337Z,987.631
2019-06-27T18:16:50.361Z,987.618
2019-06-27T18:18:50.334Z,987.649
2019-06-27T18:20:50.319Z,987.674
2019-06-27T18:22:50.383Z,987.673
2019-06-27T18:24:50.445Z,987.685
2019-06-27T18:26:50.473Z,987.689
2019-06-27T18:28:50.543Z,987.704
2019-06-27T18:30:50.497Z,987.705
2019-06-27T18:32:50.469Z,987.734
2019-06-27T18:34:49.783Z,987.726
2019-06-27T18:36:49.917Z,987.717
2019-06-27T18:38:50.032Z,987.710
2019-06-27T18:40:50.103Z,987.703
2019-06-27T18:42:50.158Z,987.707
2019-06-27T18:44:50.180Z,987.697
2019-06-27T18:46:50.322Z,987.698
2019-06-27T18:48:52.369Z,987.690
2019-06-27T18:50:50.470Z,987.695
2019-06-27T18:52:50.605Z,987.680
2019-06-27T18:54:50.614Z,987.689
2019-06-27T18:56:49.776Z,987.698
2019-06-27T18:58:49.741Z,987.716
2019-06-27T19:00:49.755Z,987.737
2019-06-27T19:02:49.825Z,987.738
2019-06-27T19:04:50.032Z,987.767
2019-06-27T19:06:50.210Z,987.762
2019-06-27T19:08:50.195Z,987.769
2019-06-27T19:10:50.127Z,987.810
2019-06-27T19:12:50.124Z,987.818
2019-06-27T19:14:50.162Z,987.841
2019-06-27T19:16:50.264Z,987.855
2019-06-27T19:18:50.230Z,987.886
2019-06-27T19:20:50.128Z,987.909
2019-06-27T19:22:50.037Z,987.932
2019-06-27T19:24:50.038Z,987.955
2019-06-27T19:26:50.412Z,987.990
2019-06-27T19:28:50.552Z,988.033
2019-06-27T19:30:50.529Z,988.050
2019-06-27T19:32:50.528Z,988.075
2019-06-27T19:34:49.852Z,988.080
2019-06-27T19:36:49.894Z,988.111
2019-06-27T19:38:49.896Z,988.117
2019-06-27T19:40:49.977Z,988.143
2019-06-27T19:42:50.004Z,988.173
2019-06-27T19:44:49.978Z,988.204
2019-06-27T19:46:50.132Z,988.248
2019-06-27T19:48:50.134Z,988.264
2019-06-27T19:50:50.107Z,988.278
2019-06-27T19:52:50.233Z,988.295
2019-06-27T19:54:50.211Z,988.320
2019-06-27T19:56:50.278Z,988.348
2019-06-27T19:58:50.206Z,988.373
2019-06-27T20:00:50.256Z,988.393
2019-06-27T20:02:50.251Z,988.420
2019-06-27T20:04:50.546Z,988.433
2019-06-27T20:06:50.602Z,988.473
2019-06-27T20:08:50.581Z,988.470
2019-06-27T20:10:49.630Z,988.476
2019-06-27T20:12:49.658Z,988.498
2019-06-27T20:14:49.673Z,988.511
2019-06-27T20:16:49.716Z,988.528
2019-06-27T20:18:49.847Z,988.539
2019-06-27T20:20:49.818Z,988.544
2019-06-27T20:22:49.831Z,988.566
2019-06-27T20:24:49.816Z,988.567
2019-06-27T20:26:49.866Z,988.577
2019-06-27T20:28:49.943Z,988.584
2019-06-27T20:30:49.953Z,988.591
2019-06-27T20:32:49.929Z,988.593
2019-06-27T20:34:50.298Z,988.604
2019-06-27T20:36:50.515Z,988.595
2019-06-27T20:38:50.524Z,988.606
2019-06-27T20:40:50.482Z,988.622
2019-06-27T20:42:50.430Z,988.645
2019-06-27T20:44:50.381Z,988.649
2019-06-27T20:46:50.490Z,988.653
2019-06-27T20:48:54.244Z,988.650
2019-06-27T20:50:50.324Z,988.676
2019-06-27T20:52:50.314Z,988.683
2019-06-27T20:54:50.326Z,988.701
2019-06-27T20:56:50.523Z,988.748
2019-06-27T20:58:50.474Z,988.765
2019-06-27T21:00:50.485Z,988.792
2019-06-27T21:02:50.406Z,988.831
2019-06-27T21:04:49.747Z,988.840
2019-06-27T21:06:49.815Z,988.846
2019-06-27T21:08:52.264Z,988.879
2019-06-27T21:10:50.230Z,988.897
2019-06-27T21:12:50.232Z,988.910
2019-06-27T21:14:50.395Z,988.913
2019-06-27T21:16:49.590Z,988.923
2019-06-27T21:18:50.553Z,988.919
2019-06-27T21:20:50.573Z,988.933
2019-06-27T21:22:50.545Z,988.942
2019-06-27T21:24:50.569Z,988.953
2019-06-27T21:26:49.679Z,988.952
2019-06-27T21:28:49.661Z,988.970
2019-06-27T21:30:49.669Z,988.971
2019-06-27T21:32:49.617Z,988.972
2019-06-27T21:34:49.982Z,988.975
2019-06-27T21:36:50.063Z,988.984
2019-06-27T21:38:50.036Z,988.990
2019-06-27T21:40:50.630Z,988.995
2019-06-27T21:42:50.578Z,988.992
2019-06-27T21:44:49.611Z,988.989
2019-06-27T21:46:49.740Z,988.993
2019-06-27T21:48:49.679Z,989.007
2019-06-27T21:50:49.941Z,989.013
2019-06-27T21:52:49.939Z,989.011
2019-06-27T21:54:49.889Z,989.013
2019-06-27T21:56:50.042Z,989.015
2019-06-27T21:58:50.144Z,989.026
2019-06-27T22:00:50.075Z,989.023
2019-06-27T22:02:50.164Z,989.019
2019-06-27T22:04:50.559Z,989.014
2019-06-27T22:06:49.737Z,988.999
2019-06-27T22:08:49.811Z,989.027
2019-06-27T22:10:49.903Z,989.071
2019-06-27T22:12:50.040Z,989.086
2019-06-27T22:14:50.065Z,989.114
2019-06-27T22:16:50.172Z,989.110
2019-06-27T22:18:50.142Z,989.118
2019-06-27T22:20:50.202Z,989.107
2019-06-27T22:22:50.219Z,989.097
2019-06-27T22:24:50.245Z,989.086
2019-06-27T22:26:50.341Z,989.090
2019-06-27T22:28:50.333Z,989.101
2019-06-27T22:30:50.359Z,989.123
2019-06-27T22:32:50.330Z,989.154
2019-06-27T22:34:49.686Z,989.180
2019-06-27T22:36:49.809Z,989.211
2019-06-27T22:38:49.824Z,989.222
2019-06-27T22:40:49.801Z,989.237
2019-06-27T22:42:49.840Z,989.242
2019-06-27T22:44:49.824Z,989.254
2019-06-27T22:46:49.896Z,989.257
2019-06-27T22:48:50.002Z,989.257
2019-06-27T22:50:49.966Z,989.253
2019-06-27T22:52:49.975Z,989.245
2019-06-27T22:54:49.789Z,989.215
2019-06-27T22:56:49.942Z,989.191
2019-06-27T22:58:49.974Z,989.163
2019-06-27T23:00:49.969Z,989.158
2019-06-27T23:02:49.956Z,989.158
2019-06-27T23:04:50.268Z,989.163
2019-06-27T23:06:50.418Z,989.151
2019-06-27T23:08:50.362Z,989.149
2019-06-27T23:10:50.342Z,989.125
2019-06-27T23:12:50.492Z,989.120
2019-06-27T23:14:50.958Z,989.144
2019-06-27T23:16:50.164Z,989.130
2019-06-27T23:18:50.219Z,989.119
2019-06-27T23:20:50.208Z,989.112
2019-06-27T23:22:50.230Z,989.113
2019-06-27T23:24:50.236Z,989.113
2019-06-27T23:26:50.456Z,989.105
2019-06-27T23:28:50.495Z,989.106
2019-06-27T23:30:50.463Z,989.126
2019-06-27T23:32:50.417Z,989.141
2019-06-27T23:34:49.836Z,989.174
2019-06-27T23:36:50.086Z,989.204
2019-06-27T23:38:50.145Z,989.216
2019-06-27T23:40:50.121Z,989.225
2019-06-27T23:42:50.093Z,989.231
2019-06-27T23:44:50.158Z,989.247
2019-06-27T23:46:50.332Z,989.257
2019-06-27T23:48:50.351Z,989.252
2019-06-27T23:50:50.346Z,989.242
2019-06-27T23:52:50.294Z,989.237
2019-06-27T23:54:50.310Z,989.242
2019-06-27T23:56:50.493Z,989.252
2019-06-27T23:58:50.602Z,989.259
